Time;durP1;ratioP1;P1;durP2;ratioP2;P2;SDS_P1;SDS_P2;PMS_P1;PMS_P2;Temp;Humidity;BMP_temperature;BMP_pressure;BME280_temperature;BME280_humidity;BME280_pressure;Samples;Min_cycle;Max_cycle;Signal;HPM_P1;HPM_P2
2021/03/20 00:00:16;;;;;;;8.50;7.05;;;;;;;;;;4994809;28;20938;-75
2021/03/20 00:02:42;;;;;;;13.20;10.00;;;;;;;;;;4994775;28;20466;-74
2021/03/20 00:05:11;;;;;;;13.32;10.43;;;;;;;;;;4994875;28;20406;-74
2021/03/20 00:07:38;;;;;;;12.98;10.30;;;;;;;;;;4993747;28;20470;-75
2021/03/20 00:10:05;;;;;;;12.40;9.68;;;;;;;;;;5009447;28;20489;-74
2021/03/20 00:12:31;;;;;;;11.85;8.60;;;;;;;;;;4993651;28;20430;-74
2021/03/20 00:14:58;;;;;;;10.07;7.63;;;;;;;;;;4993742;28;20410;-74
2021/03/20 00:17:24;;;;;;;8.98;6.90;;;1.90;91.60;;;;;;4993474;28;20415;-73
2021/03/20 00:19:50;;;;;;;8.37;7.10;;;1.60;99.90;;;;;;4993751;28;20594;-74
2021/03/20 00:22:16;;;;;;;9.70;7.40;;;1.60;99.90;;;;;;4993945;28;20585;-74
2021/03/20 00:24:43;;;;;;;5.80;5.05;;;1.80;99.90;;;;;;4994522;28;20402;-75
2021/03/20 00:27:08;;;;;;;5.78;4.63;;;1.70;91.00;;;;;;4986730;28;20401;-75
2021/03/20 00:29:34;;;;;;;4.82;4.43;;;1.90;90.50;;;;;;4994489;28;20398;-75
2021/03/20 00:32:00;;;;;;;4.63;4.13;;;1.90;90.50;;;;;;5009498;28;20407;-75
2021/03/20 00:34:26;;;;;;;4.40;3.80;;;2.00;90.00;;;;;;4987460;28;20727;-74
2021/03/20 00:36:52;;;;;;;4.50;3.72;;;2.10;90.00;;;;;;4994702;28;20886;-75
2021/03/20 00:39:20;;;;;;;5.45;4.40;;;;;;;;;;4980750;28;20414;-74
2021/03/20 00:41:46;;;;;;;5.57;4.20;;;;;;;;;;4993095;28;20443;-75
2021/03/20 00:44:13;;;;;;;5.18;4.10;;;;;;;;;;5008295;28;20418;-75
2021/03/20 00:46:39;;;;;;;5.38;4.15;;;;;;;;;;4993714;28;20445;-75
2021/03/20 00:49:06;;;;;;;5.65;4.55;;;;;;;;;;5009201;28;20481;-75
2021/03/20 00:51:32;;;;;;;5.27;4.43;;;;;;;;;;5009614;28;20587;-75
2021/03/20 00:53:58;;;;;;;5.30;4.30;;;2.20;88.90;;;;;;4990380;28;20446;-74
2021/03/20 00:56:25;;;;;;;5.40;4.78;;;;;;;;;;5009255;28;20929;-75
2021/03/20 00:58:51;;;;;;;4.37;3.90;;;;;;;;;;4993903;28;20453;-75
2021/03/20 01:01:19;;;;;;;5.47;4.85;;;;;;;;;;4993762;28;20461;-75
2021/03/20 01:03:45;;;;;;;4.82;4.43;;;;;;;;;;5008850;28;20417;-75
2021/03/20 01:06:12;;;;;;;5.15;4.55;;;;;;;;;;4993691;28;20426;-75
2021/03/20 01:08:39;;;;;;;4.80;4.30;;;;;;;;;;4993918;28;20402;-74
2021/03/20 01:11:05;;;;;;;4.80;4.25;;;;;;;;;;4988860;28;20409;-75
2021/03/20 01:13:32;;;;;;;4.70;4.28;;;;;;;;;;5008751;28;20469;-75
2021/03/20 01:15:58;;;;;;;4.13;3.73;;;;;;;;;;4993740;28;20418;-74
2021/03/20 01:18:24;;;;;;;4.18;3.78;;;2.30;90.10;;;;;;4993367;28;20465;-75
2021/03/20 01:20:51;;;;;;;4.13;3.72;;;;;;;;;;4993709;28;20878;-75
2021/03/20 01:23:17;;;;;;;4.83;3.70;;;;;;;;;;4993585;28;20493;-75
2021/03/20 01:25:43;;;;;;;4.55;3.42;;;;;;;;;;4993513;28;20578;-75
2021/03/20 01:28:09;;;;;;;3.67;3.08;;;;;;;;;;5005418;28;20408;-75
2021/03/20 01:30:38;;;;;;;3.65;3.33;;;;;;;;;;4991541;28;20473;-75
2021/03/20 01:33:05;;;;;;;3.20;2.90;;;;;;;;;;4993445;28;20507;-75
2021/03/20 01:35:31;;;;;;;3.60;3.00;;;;;;;;;;5008352;28;20406;-75
2021/03/20 01:37:58;;;;;;;4.07;3.30;;;;;;;;;;4993430;28;20402;-75
2021/03/20 01:40:26;;;;;;;4.00;3.30;;;;;;;;;;5005913;28;20946;-75
2021/03/20 01:42:52;;;;;;;3.87;3.37;;;2.00;89.00;;;;;;4993298;28;20590;-75
2021/03/20 01:45:22;;;;;;;3.85;2.95;;;2.80;84.70;;;;;;4993269;28;20485;-75
2021/03/20 01:47:57;;;;;;;4.00;2.85;;;2.70;85.00;;;;;;4992815;28;20506;-75
2021/03/20 01:50:32;;;;;;;3.37;3.07;;;2.60;85.60;;;;;;4993440;28;20514;-75
2021/03/20 01:53:03;;;;;;;3.80;3.28;;;2.50;85.50;;;;;;4992938;28;20812;-75
2021/03/20 01:55:30;;;;;;;3.38;3.03;;;2.60;84.80;;;;;;4993000;28;20394;-75
2021/03/20 01:57:59;;;;;;;3.17;2.88;;;2.60;85.10;;;;;;4988008;28;20390;-75
2021/03/20 02:00:30;;;;;;;4.13;2.70;;;2.60;84.60;;;;;;4992530;28;21509;-75
2021/03/20 02:05:29;;;;;;;3.85;2.83;;;2.70;84.10;;;;;;4951313;29;20442;-63
2021/03/20 02:07:56;;;;;;;3.50;2.90;;;2.80;83.60;;;;;;4952620;28;20503;-64
2021/03/20 02:10:25;;;;;;;3.45;2.85;;;2.70;83.30;;;;;;4954753;28;20400;-62
2021/03/20 02:12:56;;;;;;;2.97;2.72;;;2.50;84.10;;;;;;4954312;28;20444;-62
2021/03/20 02:15:30;;;;;;;2.92;2.60;;;2.40;84.10;;;;;;4954271;28;20988;-64
2021/03/20 02:18:03;;;;;;;3.50;2.83;;;2.40;84.30;;;;;;4969100;28;20501;-62
2021/03/20 02:20:44;;;;;;;4.03;3.10;;;2.40;84.20;;;;;;4968935;28;20470;-62
2021/03/20 02:24:04;;;;;;;3.33;3.03;;;2.50;84.70;;;;;;4968935;28;20473;-62
2021/03/20 02:27:16;;;;;;;3.90;3.50;;;2.50;85.80;;;;;;4954020;28;20595;-62
2021/03/20 02:30:06;;;;;;;4.00;2.92;;;2.30;86.40;;;;;;4953160;28;20544;-62
2021/03/20 02:33:11;;;;;;;4.78;3.17;;;2.20;86.00;;;;;;4948169;28;20460;-62
2021/03/20 02:35:41;;;;;;;4.00;3.25;;;;;;;;;;4943112;29;20899;-61
2021/03/20 02:38:19;;;;;;;3.20;2.90;;;;;;;;;;4946968;28;20402;-62
2021/03/20 02:40:50;;;;;;;4.30;3.58;;;;;;;;;;4953659;28;20539;-62
2021/03/20 02:43:21;;;;;;;3.78;3.47;;;;;;;;;;4949391;28;20441;-62
2021/03/20 02:45:50;;;;;;;3.20;2.65;;;;;;;;;;4945957;29;20447;-62
2021/03/20 02:48:19;;;;;;;3.40;3.10;;;;;;;;;;4968243;28;20742;-62
2021/03/20 02:50:49;;;;;;;3.30;2.90;;;;;;;;;;4975507;28;20457;-62
2021/03/20 02:53:18;;;;;;;3.10;2.63;;;;;;;;;;4953616;28;20550;-62
2021/03/20 02:55:46;;;;;;;3.07;2.77;;;;;;;;;;4945041;28;20454;-62
2021/03/20 02:58:15;;;;;;;2.97;2.60;;;;;;;;;;4949348;29;20409;-62
2021/03/20 03:00:46;;;;;;;3.22;2.72;;;;;;;;;;4961083;28;20786;-62
2021/03/20 03:03:14;;;;;;;3.95;3.55;;;;;;;;;;4948503;29;20819;-62
2021/03/20 03:05:42;;;;;;;4.07;3.70;;;;;;;;;;4955468;28;20406;-62
2021/03/20 03:08:11;;;;;;;4.03;3.63;;;;;;;;;;4957437;28;20410;-62
2021/03/20 03:10:43;;;;;;;4.57;3.65;;;2.20;86.10;;;;;;4967075;28;20415;-62
2021/03/20 03:13:13;;;;;;;4.10;3.70;;;1.80;88.90;;;;;;4938247;29;20446;-62
2021/03/20 03:15:43;;;;;;;4.40;3.97;;;1.70;88.30;;;;;;4951388;29;20394;-62
2021/03/20 03:18:12;;;;;;;5.50;4.38;;;;;;;;;;4949416;29;20447;-62
2021/03/20 03:20:42;;;;;;;4.18;3.78;;;;;;;;;;4940061;28;20432;-62
2021/03/20 03:23:10;;;;;;;4.40;4.00;;;;;;;;;;4947875;29;20522;-61
2021/03/20 03:25:38;;;;;;;4.40;4.00;;;;;;;;;;4954295;28;20453;-62
2021/03/20 03:28:06;;;;;;;4.40;3.72;;;;;;;;;;4946868;29;20433;-62
2021/03/20 03:30:33;;;;;;;4.63;3.55;;;1.00;90.10;;;;;;4956683;28;20884;-62
2021/03/20 03:33:01;;;;;;;4.25;3.85;;;;;;;;;;4949989;28;20458;-62
2021/03/20 03:35:30;;;;;;;4.30;3.90;;;;;;;;;;4952696;28;20450;-62
2021/03/20 03:37:59;;;;;;;4.80;3.80;;;;;;;;;;4943921;29;20809;-62
2021/03/20 03:40:30;;;;;;;3.90;3.57;;;;;;;;;;4944156;28;20923;-62
2021/03/20 03:42:56;;;;;;;3.83;3.53;;;;;;;;;;4970067;28;20414;-62
2021/03/20 03:45:23;;;;;;;3.72;3.15;;;;;;;;;;4961617;28;20466;-61
2021/03/20 03:47:49;;;;;;;3.10;2.78;;;;;;;;;;4954044;29;20429;-62
2021/03/20 03:50:18;;;;;;;4.13;3.63;;;1.00;90.50;;;;;;4956754;28;20437;-62
2021/03/20 03:52:44;;;;;;;4.80;4.30;;;1.00;90.10;;;;;;4943131;28;20909;-62
2021/03/20 03:55:11;;;;;;;5.85;4.75;;;1.00;90.30;;;;;;4956774;28;20880;-62
2021/03/20 03:57:48;;;;;;;5.13;4.63;;;0.90;90.80;;;;;;4952149;28;20399;-62
2021/03/20 04:00:25;;;;;;;4.88;4.05;;;0.70;91.30;;;;;;4944229;29;20420;-62
2021/03/20 04:03:09;;;;;;;4.45;4.05;;;0.70;91.10;;;;;;4947832;28;20394;-63
2021/03/20 04:05:41;;;;;;;4.03;3.63;;;0.70;91.30;;;;;;4953896;28;20827;-62
2021/03/20 04:08:16;;;;;;;4.65;3.72;;;0.70;91.00;;;;;;4955976;28;20869;-62
2021/03/20 04:10:46;;;;;;;3.67;3.28;;;0.80;90.40;;;;;;4971106;28;20440;-62
2021/03/20 04:13:15;;;;;;;4.00;3.17;;;;;;;;;;4941712;29;20466;-63
2021/03/20 04:15:49;;;;;;;3.67;3.20;;;;;;;;;;4944329;28;20441;-63
2021/03/20 04:18:20;;;;;;;4.60;3.30;;;;;;;;;;4955823;28;20406;-63
2021/03/20 04:20:52;;;;;;;3.50;3.20;;;2.40;97.70;;;;;;4956490;28;20433;-62
2021/03/20 04:23:22;;;;;;;3.42;2.92;;;;;;;;;;4955595;28;20477;-63
2021/03/20 04:25:50;;;;;;;3.20;2.90;;;;;;;;;;4951927;28;20552;-63
2021/03/20 04:28:24;;;;;;;3.17;2.88;;;;;;;;;;4937180;29;20435;-62
2021/03/20 04:30:57;;;;;;;3.28;2.70;;;2.40;82.90;;;;;;4950119;28;20507;-62
2021/03/20 04:33:29;;;;;;;4.03;3.42;;;3.10;78.50;;;;;;4937247;29;20462;-63
2021/03/20 04:35:59;;;;;;;3.38;3.08;;;3.20;78.30;;;;;;4952620;28;20408;-62
2021/03/20 04:38:26;;;;;;;3.30;3.00;;;3.20;78.00;;;;;;4949553;29;20833;-63
2021/03/20 04:40:54;;;;;;;3.17;2.90;;;;;;;;;;4955219;28;20931;-63
2021/03/20 04:43:22;;;;;;;3.50;2.50;;;;;;;;;;4947190;28;20502;-63
2021/03/20 04:45:50;;;;;;;3.30;2.97;;;;;;;;;;4950004;29;20455;-63
2021/03/20 04:48:18;;;;;;;3.33;2.90;;;;;;;;;;4942645;29;20796;-62
2021/03/20 04:50:45;;;;;;;3.30;3.00;;;;;;;;;;4970385;28;20416;-63
2021/03/20 04:53:14;;;;;;;3.17;2.78;;;3.50;97.00;;;;;;4955170;28;20417;-62
2021/03/20 04:55:40;;;;;;;3.10;2.67;;;3.80;73.70;;;;;;4961642;28;20405;-63
2021/03/20 04:58:14;;;;;;;3.38;3.08;;;3.70;79.80;;;;;;4956605;28;20436;-62
2021/03/20 05:00:45;;;;;;;2.92;2.72;;;3.70;74.40;;;;;;4955437;28;21019;-62
2021/03/20 05:03:18;;;;;;;2.97;2.67;;;3.70;74.00;;;;;;4941551;28;20455;-63
2021/03/20 05:05:47;;;;;;;4.10;2.35;;;3.70;73.70;;;;;;4955430;28;20469;-63
2021/03/20 05:08:17;;;;;;;3.35;2.33;;;3.70;73.10;;;;;;4969773;28;20448;-62
2021/03/20 05:10:46;;;;;;;3.03;2.67;;;3.80;72.60;;;;;;4955163;28;20494;-63
2021/03/20 05:13:26;;;;;;;3.00;2.70;;;3.80;73.20;;;;;;4953872;29;20436;-62
2021/03/20 05:15:59;;;;;;;3.42;2.55;;;3.80;73.00;;;;;;4969104;28;20952;-62
2021/03/20 05:18:25;;;;;;;3.75;2.70;;;3.80;72.50;;;;;;4954153;28;20990;-62
2021/03/20 05:20:51;;;;;;;2.83;2.63;;;3.70;72.70;;;;;;4968966;28;20414;-63
2021/03/20 05:23:17;;;;;;;3.30;3.00;;;3.70;72.70;;;;;;4949597;28;20427;-62
2021/03/20 05:25:43;;;;;;;3.25;2.85;;;3.70;72.30;;;;;;4954832;28;20492;-62
2021/03/20 05:28:09;;;;;;;3.05;2.38;;;3.70;71.90;;;;;;4945506;28;20406;-63
2021/03/20 05:30:35;;;;;;;2.80;2.40;;;3.70;71.60;;;;;;4953352;29;20396;-63
2021/03/20 05:33:01;;;;;;;3.88;2.53;;;3.70;71.60;;;;;;4948415;28;20409;-63
2021/03/20 05:35:28;;;;;;;2.40;2.20;;;3.70;71.20;;;;;;4950149;29;20453;-62
2021/03/20 05:37:54;;;;;;;3.05;2.75;;;3.80;71.40;;;;;;4946172;28;20409;-63
2021/03/20 05:40:25;;;;;;;2.78;2.55;;;3.80;71.30;;;;;;4968542;28;20766;-62
2021/03/20 05:43:23;;;;;;;3.20;2.58;;;3.80;70.60;;;;;;4953716;28;20443;-62
2021/03/20 05:46:01;;;;;;;2.80;2.50;;;3.90;70.70;;;;;;4952223;28;20533;-63
2021/03/20 05:48:30;;;;;;;3.08;2.60;;;3.80;70.90;;;;;;4951444;29;20404;-62
2021/03/20 05:51:16;;;;;;;3.33;2.75;;;3.80;70.80;;;;;;4954162;28;20443;-63
2021/03/20 05:54:07;;;;;;;2.67;2.47;;;3.90;70.20;;;;;;4951886;28;20453;-62
2021/03/20 05:56:40;;;;;;;3.42;2.20;;;3.80;70.50;;;;;;4953001;28;20467;-62
2021/03/20 05:59:20;;;;;;;2.78;2.53;;;3.90;69.90;;;;;;4968020;28;20841;-62
2021/03/20 06:02:14;;;;;;;4.53;2.72;;;4.00;90.80;;;;;;4953149;28;20461;-62
2021/03/20 06:04:43;;;;;;;4.25;2.70;;;4.10;93.50;;;;;;4953250;28;20476;-62
2021/03/20 06:07:38;;;;;;;3.22;2.55;;;3.90;73.30;;;;;;4947682;29;20423;-63
2021/03/20 06:10:32;;;;;;;3.35;2.60;;;4.10;73.50;;;;;;4957241;28;20413;-63
2021/03/20 06:13:17;;;;;;;3.15;2.78;;;4.10;69.20;;;;;;4945159;28;20487;-63
2021/03/20 06:16:14;;;;;;;2.85;2.40;;;4.10;92.40;;;;;;4967270;28;20423;-62
2021/03/20 06:18:55;;;;;;;3.50;2.70;;;4.20;91.70;;;;;;4953432;28;20393;-63
2021/03/20 06:21:33;;;;;;;2.40;2.15;;;4.20;92.30;;;;;;4942624;29;20475;-62
2021/03/20 06:24:31;;;;;;;3.00;1.95;;;4.30;77.00;;;;;;4951981;28;20447;-62
2021/03/20 06:27:00;;;;;;;3.70;2.67;;;4.30;74.40;;;;;;4950942;29;20465;-62
2021/03/20 06:29:32;;;;;;;2.47;2.27;;;4.30;66.50;;;;;;4953887;28;20884;-63
2021/03/20 06:32:06;;;;;;;2.97;2.33;;;4.30;66.20;;;;;;4953869;28;20469;-63
2021/03/20 06:34:37;;;;;;;2.90;2.20;;;4.30;65.50;;;;;;4944338;28;20457;-63
2021/03/20 06:37:09;;;;;;;1.98;1.77;;;4.30;66.30;;;;;;4958117;28;20467;-62
2021/03/20 06:39:42;;;;;;;3.55;2.13;;;4.40;65.30;;;;;;4954410;28;20471;-63
2021/03/20 06:42:18;;;;;;;2.35;1.70;;;4.40;66.10;;;;;;4957908;28;20935;-63
2021/03/20 06:44:46;;;;;;;2.67;2.13;;;4.60;95.00;;;;;;4957769;28;20445;-63
2021/03/20 06:47:15;;;;;;;2.60;1.90;;;4.60;93.10;;;;;;4957788;28;20460;-63
2021/03/20 06:49:46;;;;;;;2.63;2.10;;;4.60;90.30;;;;;;4957499;28;20400;-63
2021/03/20 06:52:19;;;;;;;2.70;2.00;;;4.50;80.10;;;;;;4956342;28;20402;-62
2021/03/20 06:54:48;;;;;;;2.72;2.45;;;;;;;;;;4957377;28;20529;-62
2021/03/20 06:57:14;;;;;;;4.05;2.63;;;;;;;;;;4957804;28;20439;-63
2021/03/20 06:59:40;;;;;;;3.05;2.20;;;;;;;;;;4955599;28;20781;-63
2021/03/20 07:02:16;;;;;;;2.63;2.13;;;;;;;;;;4946444;29;20496;-63
2021/03/20 07:05:05;;;;;;;3.33;2.25;;;4.60;76.50;;;;;;4957066;28;20844;-62
2021/03/20 07:07:54;;;;;;;2.58;2.30;;;4.90;76.00;;;;;;4957626;28;20452;-62
2021/03/20 07:10:34;;;;;;;2.95;2.30;;;5.00;91.40;;;;;;4951949;28;20433;-62
2021/03/20 07:13:20;;;;;;;4.00;2.47;;;5.10;64.50;;;;;;4950224;29;20796;-63
2021/03/20 07:16:02;;;;;;;2.92;2.60;;;4.80;64.30;;;;;;4946684;29;20418;-63
2021/03/20 07:18:32;;;;;;;3.45;2.42;;;;;;;;;;4954692;28;20673;-62
2021/03/20 07:21:00;;;;;;;3.20;2.10;;;5.00;62.10;;;;;;4961871;28;20885;-62
2021/03/20 07:23:28;;;;;;;2.72;2.30;;;5.10;62.70;;;;;;4942702;28;20406;-62
2021/03/20 07:26:03;;;;;;;4.63;2.60;;;;;;;;;;4945939;29;20416;-62
2021/03/20 07:28:29;;;;;;;2.63;2.10;;;;;;;;;;4943784;28;20395;-62
2021/03/20 07:31:05;;;;;;;2.50;2.03;;;5.50;61.40;;;;;;4949108;28;20407;-62
2021/03/20 07:33:34;;;;;;;4.65;2.70;;;5.70;61.50;;;;;;4938566;29;20399;-63
2021/03/20 07:36:20;;;;;;;2.65;2.25;;;5.90;60.30;;;;;;4956990;28;20405;-62
2021/03/20 07:39:03;;;;;;;3.20;2.50;;;6.00;59.60;;;;;;4956707;28;20417;-62
2021/03/20 07:41:44;;;;;;;3.63;2.55;;;6.10;59.60;;;;;;4971900;28;20418;-63
2021/03/20 07:44:10;;;;;;;4.28;2.60;;;6.20;60.70;;;;;;4971420;28;20410;-63
2021/03/20 07:46:36;;;;;;;3.75;2.40;;;6.30;58.60;;;;;;4956743;28;20428;-63
2021/03/20 07:49:05;;;;;;;2.80;2.40;;;6.40;59.30;;;;;;4956718;28;20757;-63
2021/03/20 07:51:44;;;;;;;3.42;2.55;;;6.50;57.90;;;;;;4942362;28;20398;-63
2021/03/20 07:54:21;;;;;;;3.03;2.38;;;6.60;58.40;;;;;;4944466;28;20398;-63
2021/03/20 07:56:48;;;;;;;2.80;2.55;;;6.80;57.30;;;;;;4971493;28;20413;-63
2021/03/20 07:59:20;;;;;;;4.68;2.42;;;6.80;57.30;;;;;;4944752;28;20497;-63
2021/03/20 08:01:51;;;;;;;2.97;2.67;;;6.90;56.40;;;;;;4955670;29;20401;-63
2021/03/20 08:04:17;;;;;;;3.08;2.50;;;6.90;56.50;;;;;;4971150;28;20422;-62
2021/03/20 08:06:45;;;;;;;2.60;2.35;;;;;;;;;;4954959;28;20437;-62
2021/03/20 08:09:27;;;;;;;3.05;2.70;;;7.20;55.00;;;;;;4946442;28;20395;-62
2021/03/20 08:12:09;;;;;;;3.72;2.78;;;7.30;56.20;;;;;;4954795;29;20440;-62
2021/03/20 08:14:39;;;;;;;3.95;2.17;;;7.40;54.60;;;;;;4956370;28;20492;-63
2021/03/20 08:17:09;;;;;;;3.13;2.42;;;7.50;55.40;;;;;;4942693;28;20406;-63
2021/03/20 08:19:35;;;;;;;4.72;2.50;;;7.60;54.00;;;;;;4944937;28;20780;-63
2021/03/20 08:22:31;;;;;;;2.80;2.60;;;7.80;53.40;;;;;;4952836;29;20402;-63
2021/03/20 08:25:11;;;;;;;4.23;2.83;;;7.90;55.90;;;;;;4955938;28;20409;-63
2021/03/20 08:27:50;;;;;;;3.05;2.70;;;8.10;53.20;;;;;;4944726;29;20406;-63
2021/03/20 08:30:38;;;;;;;3.05;2.75;;;8.10;53.40;;;;;;4959812;28;20804;-63
2021/03/20 08:33:26;;;;;;;2.53;2.33;;;8.30;53.20;;;;;;4940412;29;20400;-63
2021/03/20 08:36:05;;;;;;;3.40;2.50;;;8.40;51.80;;;;;;4955555;28;20397;-63
2021/03/20 08:38:59;;;;;;;2.83;2.33;;;8.40;51.50;;;;;;4955897;28;20533;-63
2021/03/20 08:41:29;;;;;;;2.40;2.17;;;;;;;;;;4953681;29;20517;-63
2021/03/20 08:44:07;;;;;;;2.35;2.15;;;;;;;;;;4942524;28;20411;-63
2021/03/20 08:46:59;;;;;;;2.38;2.10;;;8.70;50.90;;;;;;4942256;29;20397;-63
2021/03/20 08:49:36;;;;;;;3.13;2.35;;;8.90;50.50;;;;;;4957303;28;20397;-63
2021/03/20 08:52:13;;;;;;;2.80;2.60;;;9.00;49.10;;;;;;4962817;28;20454;-63
2021/03/20 08:55:11;;;;;;;3.67;2.45;;;9.20;52.30;;;;;;4954675;28;20456;-63
2021/03/20 08:57:49;;;;;;;3.58;2.58;;;9.30;49.20;;;;;;4954916;28;20405;-63
2021/03/20 09:00:21;;;;;;;3.60;2.50;;;9.40;48.50;;;;;;4955243;28;20422;-65
2021/03/20 09:02:50;;;;;;;3.13;2.63;;;9.40;47.60;;;;;;4953082;28;20456;-63
2021/03/20 09:05:22;;;;;;;2.30;2.10;;;;;;;;;;4955056;28;20410;-63
2021/03/20 09:07:53;;;;;;;2.60;2.00;;;9.30;50.60;;;;;;4948766;29;20931;-63
2021/03/20 09:10:25;;;;;;;2.17;1.95;;;9.70;47.80;;;;;;4948236;28;20394;-63
2021/03/20 09:13:01;;;;;;;2.22;2.03;;;9.80;45.80;;;;;;4962477;28;20465;-63
2021/03/20 09:15:32;;;;;;;2.63;1.92;;;9.90;46.10;;;;;;4951905;29;20969;-63
2021/03/20 09:18:00;;;;;;;2.30;2.10;;;9.90;46.40;;;;;;4954285;28;20496;-63
2021/03/20 09:20:37;;;;;;;2.83;2.20;;;10.10;47.70;;;;;;4954035;28;20505;-63
2021/03/20 09:23:04;;;;;;;2.75;1.92;;;10.20;48.10;;;;;;4954067;28;20401;-63
2021/03/20 09:25:37;;;;;;;1.92;1.75;;;10.40;44.30;;;;;;4954545;28;20917;-63
2021/03/20 09:28:08;;;;;;;2.80;2.05;;;10.50;43.00;;;;;;4949835;28;20455;-63
2021/03/20 09:30:37;;;;;;;2.10;1.90;;;10.50;44.20;;;;;;4951808;29;20417;-64
2021/03/20 09:33:06;;;;;;;3.08;2.05;;;10.50;45.30;;;;;;4953780;28;20963;-63
2021/03/20 09:35:42;;;;;;;1.80;1.42;;;10.70;43.20;;;;;;4953398;28;20416;-64
2021/03/20 09:38:08;;;;;;;2.22;1.70;;;10.90;42.10;;;;;;4952949;29;20488;-64
2021/03/20 09:40:52;;;;;;;1.80;1.70;;;11.10;42.60;;;;;;4953190;28;20520;-63
2021/03/20 09:43:43;;;;;;;2.20;2.00;;;11.10;41.40;;;;;;4952763;29;20518;-64
2021/03/20 09:46:47;;;;;;;1.63;1.40;;;11.10;42.40;;;;;;4969448;28;20440;-63
2021/03/20 09:49:55;;;;;;;1.83;1.60;;;11.40;40.70;;;;;;4948749;29;20401;-67
2021/03/20 09:52:43;;;;;;;2.25;1.38;;;11.40;42.60;;;;;;4947566;29;20386;-64
2021/03/20 09:55:46;;;;;;;1.60;1.50;;;11.60;40.10;;;;;;4951346;28;20418;-63
2021/03/20 09:58:37;;;;;;;1.38;1.23;;;11.50;41.40;;;;;;4953606;28;20406;-63
2021/03/20 10:01:21;;;;;;;1.63;1.30;;;;;;;;;;4953777;28;20991;-63
2021/03/20 10:04:20;;;;;;;1.40;1.30;;;;;;;;;;4965146;28;20457;-63
2021/03/20 10:07:07;;;;;;;1.33;1.20;;;;;;;;;;4967744;28;20467;-63
2021/03/20 10:09:50;;;;;;;1.95;1.60;;;;;;;;;;4951016;29;20449;-64
2021/03/20 10:12:22;;;;;;;1.90;1.27;;;11.90;38.80;;;;;;4951582;29;20402;-64
2021/03/20 10:15:04;;;;;;;2.25;2.05;;;12.10;36.70;;;;;;4953027;28;20406;-65
2021/03/20 10:17:32;;;;;;;1.83;1.50;;;12.00;38.70;;;;;;4967979;28;20940;-64
2021/03/20 10:20:11;;;;;;;1.85;1.75;;;12.20;38.10;;;;;;4950969;28;20512;-64
2021/03/20 10:22:51;;;;;;;1.92;1.70;;;12.30;38.20;;;;;;4950600;29;20731;-64
2021/03/20 10:25:17;;;;;;;2.30;2.10;;;12.40;37.10;;;;;;4952713;28;20394;-64
2021/03/20 10:27:50;;;;;;;2.33;1.87;;;11.80;39.50;;;;;;4952452;28;20398;-63
2021/03/20 10:30:20;;;;;;;2.58;2.38;;;11.80;40.60;;;;;;4953010;28;20390;-64
2021/03/20 10:32:57;;;;;;;3.70;2.40;;;12.20;40.30;;;;;;4950917;29;20431;-64
2021/03/20 10:35:23;;;;;;;3.38;2.92;;;12.50;39.60;;;;;;4953164;28;20397;-64
2021/03/20 10:37:50;;;;;;;3.78;3.40;;;12.70;39.50;;;;;;4965179;28;20418;-63
2021/03/20 10:40:23;;;;;;;3.00;2.70;;;12.60;40.50;;;;;;4951905;28;20417;-64
2021/03/20 10:42:52;;;;;;;3.60;3.00;;;12.20;41.20;;;;;;4952438;28;20398;-64
2021/03/20 10:45:25;;;;;;;3.08;2.78;;;12.10;39.70;;;;;;4967248;28;20437;-64
2021/03/20 10:47:59;;;;;;;4.47;3.77;;;11.90;40.40;;;;;;4953296;28;20407;-63
2021/03/20 10:50:32;;;;;;;3.87;3.10;;;11.40;41.20;;;;;;4966415;28;20425;-64
2021/03/20 10:53:03;;;;;;;3.50;3.20;;;11.60;43.40;;;;;;4968404;28;20464;-63
2021/03/20 10:55:36;;;;;;;3.03;2.70;;;12.00;40.80;;;;;;4950706;28;20826;-64
2021/03/20 10:58:02;;;;;;;3.88;3.28;;;12.30;42.80;;;;;;4953265;28;20819;-64
2021/03/20 11:00:30;;;;;;;3.30;3.00;;;12.20;41.30;;;;;;4953429;28;20418;-64
2021/03/20 11:03:08;;;;;;;3.28;2.97;;;12.50;38.80;;;;;;4953339;28;20912;-63
2021/03/20 11:05:35;;;;;;;3.00;2.70;;;12.00;40.30;;;;;;4953119;28;20406;-64
2021/03/20 11:08:10;;;;;;;3.20;2.50;;;11.80;40.40;;;;;;4953141;28;20509;-64
2021/03/20 11:10:39;;;;;;;2.75;2.55;;;11.90;42.00;;;;;;4967214;28;20465;-64
2021/03/20 11:13:07;;;;;;;3.33;2.85;;;12.00;39.60;;;;;;4967923;28;20418;-64
2021/03/20 11:15:36;;;;;;;3.05;2.75;;;11.80;41.40;;;;;;4951645;28;20402;-64
2021/03/20 11:18:06;;;;;;;3.30;2.87;;;;;;;;;;4952752;28;20438;-67
2021/03/20 11:20:35;;;;;;;2.92;2.45;;;12.70;37.80;;;;;;4953388;28;20432;-64
2021/03/20 11:23:03;;;;;;;2.78;2.50;;;12.80;37.70;;;;;;4953522;28;20397;-64
2021/03/20 11:25:34;;;;;;;2.78;2.58;;;;;;;;;;4952047;28;20944;-64
2021/03/20 11:28:02;;;;;;;2.78;2.58;;;13.20;36.30;;;;;;4957097;28;20406;-64
2021/03/20 11:30:33;;;;;;;3.42;2.50;;;12.80;38.10;;;;;;4971501;28;20429;-64
2021/03/20 11:33:00;;;;;;;2.63;2.40;;;;;;;;;;4957153;28;20881;-64
2021/03/20 11:35:27;;;;;;;2.95;2.75;;;;;;;;;;4956317;28;20448;-64
2021/03/20 11:37:58;;;;;;;3.33;3.03;;;12.80;39.30;;;;;;4940786;28;20454;-64
2021/03/20 11:40:29;;;;;;;2.83;2.63;;;13.10;36.50;;;;;;4951594;29;20909;-65
2021/03/20 11:42:57;;;;;;;2.80;2.60;;;13.10;37.80;;;;;;4956576;28;20394;-65
2021/03/20 11:45:27;;;;;;;3.22;2.40;;;13.30;36.60;;;;;;4955548;28;20409;-64
2021/03/20 11:47:56;;;;;;;2.85;2.53;;;13.30;36.10;;;;;;4957786;28;20406;-64
2021/03/20 11:50:26;;;;;;;2.45;2.25;;;13.50;36.90;;;;;;4956926;28;20797;-64
2021/03/20 11:52:55;;;;;;;2.50;2.25;;;13.40;36.70;;;;;;4955173;28;20433;-64
2021/03/20 11:55:33;;;;;;;3.05;2.70;;;13.60;35.50;;;;;;4955336;28;20429;-64
2021/03/20 11:58:01;;;;;;;3.00;2.70;;;13.40;34.70;;;;;;4953182;28;20410;-64
2021/03/20 12:00:37;;;;;;;2.58;2.38;;;13.20;36.50;;;;;;4944358;29;20418;-64
2021/03/20 12:03:12;;;;;;;3.08;2.80;;;13.30;35.70;;;;;;4955994;28;20908;-64
2021/03/20 12:05:38;;;;;;;2.65;2.45;;;13.20;38.30;;;;;;4947968;28;20883;-64
2021/03/20 12:08:27;;;;;;;2.85;2.55;;;13.40;35.90;;;;;;4950597;29;20968;-64
2021/03/20 12:11:03;;;;;;;2.70;2.28;;;13.60;35.90;;;;;;4947322;29;20398;-64
2021/03/20 12:13:40;;;;;;;3.22;2.53;;;13.40;37.30;;;;;;4970881;28;20936;-64
2021/03/20 12:16:06;;;;;;;2.90;2.70;;;;;;;;;;4951836;28;20459;-64
2021/03/20 12:18:33;;;;;;;2.97;2.70;;;;;;;;;;4950400;29;20780;-64
2021/03/20 12:21:03;;;;;;;2.45;2.25;;;;;;;;;;4936845;29;20529;-65
2021/03/20 12:23:31;;;;;;;2.88;2.60;;;;;;;;;;4976321;28;20890;-64
2021/03/20 12:25:58;;;;;;;3.42;2.42;;;;;;;;;;4955699;28;20880;-64
2021/03/20 12:28:31;;;;;;;12.02;10.13;;;;;;;;;;4951460;28;20974;-64
2021/03/20 12:31:02;;;;;;;2.60;2.40;;;;;;;;;;4949014;29;20398;-64
2021/03/20 12:33:28;;;;;;;3.08;2.78;;;;;;;;;;4954467;28;20500;-65
2021/03/20 12:35:55;;;;;;;6.60;4.30;;;;;;;;;;4953523;29;20441;-64
2021/03/20 12:38:22;;;;;;;2.90;2.70;;;;;;;;;;4955079;28;20873;-63
2021/03/20 12:40:53;;;;;;;3.67;3.00;;;14.50;40.90;;;;;;4954938;28;20472;-64
2021/03/20 12:43:31;;;;;;;3.17;2.92;;;12.60;35.50;;;;;;4947292;28;20403;-63
2021/03/20 12:45:58;;;;;;;2.40;2.17;;;;;;;;;;4949854;29;20461;-63
2021/03/20 12:48:24;;;;;;;2.92;2.60;;;;;;;;;;4954729;28;20944;-63
2021/03/20 12:50:55;;;;;;;2.50;2.20;;;;;;;;;;4953944;28;20406;-64
2021/03/20 12:53:21;;;;;;;3.08;2.75;;;;;;;;;;4967039;28;20912;-63
2021/03/20 12:55:48;;;;;;;2.80;2.60;;;;;;;;;;4953254;28;20408;-64
2021/03/20 12:58:14;;;;;;;2.78;2.58;;;;;;;;;;4953814;28;20402;-64
2021/03/20 13:00:41;;;;;;;2.35;1.98;;;;;;;;;;4947628;29;20446;-63
2021/03/20 13:03:07;;;;;;;3.65;2.55;;;;;;;;;;4956251;28;20418;-64
2021/03/20 13:05:35;;;;;;;3.10;2.67;;;;;;;;;;4950427;28;20507;-64
2021/03/20 13:08:01;;;;;;;3.40;2.40;;;14.40;33.60;;;;;;4951607;29;20418;-65
2021/03/20 13:10:27;;;;;;;43.92;28.60;;;13.70;36.10;;;;;;4952311;28;20422;-64
2021/03/20 13:12:53;;;;;;;7.40;6.35;;;;;;;;;;4951087;29;20769;-64
2021/03/20 13:15:20;;;;;;;2.38;2.13;;;;;;;;;;4967267;28;20418;-64
2021/03/20 13:17:48;;;;;;;3.13;2.72;;;;;;;;;;4949651;29;20785;-64
2021/03/20 13:20:14;;;;;;;2.70;2.50;;;13.40;33.40;;;;;;4966644;28;20438;-63
2021/03/20 13:22:41;;;;;;;2.85;2.65;;;14.10;33.70;;;;;;4952746;28;20398;-64
2021/03/20 13:25:07;;;;;;;2.78;2.33;;;;;;;;;;4952375;28;20393;-63
2021/03/20 13:27:34;;;;;;;2.25;2.05;;;;;;;;;;4952261;29;20497;-64
2021/03/20 13:30:00;;;;;;;2.33;2.08;;;;;;;;;;4950815;29;20448;-64
2021/03/20 13:32:27;;;;;;;2.20;2.00;;;;;;;;;;4952663;29;20406;-63
2021/03/20 13:34:54;;;;;;;2.00;1.80;;;;;;;;;;4950948;29;20441;-64
2021/03/20 13:37:20;;;;;;;2.13;1.67;;;;;;;;;;4951737;29;20429;-66
2021/03/20 13:39:47;;;;;;;2.00;1.60;;;;;;;;;;4952456;29;20426;-63
2021/03/20 13:42:13;;;;;;;2.78;2.20;;;;;;;;;;4967780;28;20405;-64
2021/03/20 13:44:39;;;;;;;3.00;1.90;;;;;;;;;;4952141;28;20510;-63
2021/03/20 13:47:06;;;;;;;1.75;1.45;;;;;;;;;;4952017;29;20433;-63
2021/03/20 13:49:32;;;;;;;4.35;3.00;;;;;;;;;;4951674;28;20402;-63
2021/03/20 13:52:00;;;;;;;1.73;1.40;;;;;;;;;;4952287;29;20418;-65
2021/03/20 13:54:26;;;;;;;1.67;1.58;;;;;;;;;;4952232;28;20410;-63
2021/03/20 13:56:52;;;;;;;1.47;1.37;;;;;;;;;;4952469;29;20410;-63
2021/03/20 13:59:20;;;;;;;3.85;2.00;;;;;;;;;;4952458;28;20410;-64
2021/03/20 14:01:46;;;;;;;2.15;1.95;;;;;;;;;;4952033;29;20424;-64